sensor_id;sensor_type;location;lat;lon;timestamp;pressure;altitude;pressure_sealevel;temperature;humidity
7480;BME280;3781;42.272;22.658;2022-10-17T00:00:41;95855.94;;;6.09;nan
7480;BME280;3781;42.272;22.658;2022-10-17T00:03:08;95850.56;;;5.96;nan
7480;BME280;3781;42.272;22.658;2022-10-17T00:05:39;95831.41;;;5.66;nan
7480;BME280;3781;42.272;22.658;2022-10-17T00:08:08;95860.84;;;5.79;nan
7480;BME280;3781;42.272;22.658;2022-10-17T00:10:36;95855.50;;;6.01;nan
7480;BME280;3781;42.272;22.658;2022-10-17T00:13:03;95861.56;;;6.00;nan
7480;BME280;3781;42.272;22.658;2022-10-17T00:15:30;95864.22;;;5.98;nan
7480;BME280;3781;42.272;22.658;2022-10-17T00:17:58;95869.44;;;5.97;nan
7480;BME280;3781;42.272;22.658;2022-10-17T00:20:24;95867.84;;;5.94;nan
7480;BME280;3781;42.272;22.658;2022-10-17T00:22:51;95864.66;;;5.89;nan
7480;BME280;3781;42.272;22.658;2022-10-17T00:25:20;95868.13;;;5.71;nan
7480;BME280;3781;42.272;22.658;2022-10-17T00:27:46;95863.31;;;5.64;nan
7480;BME280;3781;42.272;22.658;2022-10-17T00:30:15;95861.81;;;5.60;nan
7480;BME280;3781;42.272;22.658;2022-10-17T00:32:41;95869.16;;;5.50;nan
7480;BME280;3781;42.272;22.658;2022-10-17T00:35:08;95851.88;;;5.16;nan
7480;BME280;3781;42.272;22.658;2022-10-17T00:37:36;95862.00;;;5.38;nan
7480;BME280;3781;42.272;22.658;2022-10-17T00:40:03;95873.44;;;5.32;nan
7480;BME280;3781;42.272;22.658;2022-10-17T00:42:31;95872.75;;;5.46;nan
7480;BME280;3781;42.272;22.658;2022-10-17T00:45:04;95879.97;;;5.21;nan
7480;BME280;3781;42.272;22.658;2022-10-17T00:47:35;95875.31;;;5.29;nan
7480;BME280;3781;42.272;22.658;2022-10-17T00:50:03;95875.31;;;5.29;nan
7480;BME280;3781;42.272;22.658;2022-10-17T00:52:31;95879.41;;;5.33;nan
7480;BME280;3781;42.272;22.658;2022-10-17T00:55:01;95884.72;;;5.30;nan
7480;BME280;3781;42.272;22.658;2022-10-17T00:57:32;95874.53;;;5.27;nan
7480;BME280;3781;42.272;22.658;2022-10-17T00:59:59;95882.47;;;5.22;nan
7480;BME280;3781;42.272;22.658;2022-10-17T01:02:28;95881.81;;;5.19;nan
7480;BME280;3781;42.272;22.658;2022-10-17T01:04:55;95883.31;;;5.23;nan
7480;BME280;3781;42.272;22.658;2022-10-17T01:07:24;95875.13;;;5.15;nan
7480;BME280;3781;42.272;22.658;2022-10-17T01:09:52;95875.19;;;4.95;nan
7480;BME280;3781;42.272;22.658;2022-10-17T01:12:21;95852.78;;;4.97;nan
7480;BME280;3781;42.272;22.658;2022-10-17T01:14:59;95876.06;;;5.31;nan
7480;BME280;3781;42.272;22.658;2022-10-17T01:17:34;95868.25;;;5.51;nan
7480;BME280;3781;42.272;22.658;2022-10-17T01:20:24;95869.84;;;5.71;nan
7480;BME280;3781;42.272;22.658;2022-10-17T01:23:04;95870.28;;;5.97;nan
7480;BME280;3781;42.272;22.658;2022-10-17T01:25:42;95862.69;;;5.94;nan
7480;BME280;3781;42.272;22.658;2022-10-17T01:28:27;95866.47;;;5.87;nan
7480;BME280;3781;42.272;22.658;2022-10-17T01:31:05;95854.63;;;5.83;nan
7480;BME280;3781;42.272;22.658;2022-10-17T01:33:46;95853.44;;;6.07;nan
7480;BME280;3781;42.272;22.658;2022-10-17T01:36:25;95861.00;;;6.28;nan
7480;BME280;3781;42.272;22.658;2022-10-17T01:38:57;95856.56;;;6.47;nan
7480;BME280;3781;42.272;22.658;2022-10-17T01:41:34;95860.22;;;6.43;nan
7480;BME280;3781;42.272;22.658;2022-10-17T01:44:08;95863.03;;;6.38;nan
7480;BME280;3781;42.272;22.658;2022-10-17T01:46:41;95867.16;;;6.25;nan
7480;BME280;3781;42.272;22.658;2022-10-17T01:49:10;95858.47;;;6.11;nan
7480;BME280;3781;42.272;22.658;2022-10-17T01:51:41;95862.16;;;5.88;nan
7480;BME280;3781;42.272;22.658;2022-10-17T01:54:12;95865.09;;;5.80;nan
7480;BME280;3781;42.272;22.658;2022-10-17T01:56:41;95868.44;;;5.82;nan
7480;BME280;3781;42.272;22.658;2022-10-17T01:59:12;95871.00;;;5.65;nan
7480;BME280;3781;42.272;22.658;2022-10-17T02:01:43;95873.53;;;5.48;nan
7480;BME280;3781;42.272;22.658;2022-10-17T02:04:10;95879.25;;;5.36;nan
7480;BME280;3781;42.272;22.658;2022-10-17T02:06:37;95881.97;;;5.33;nan
7480;BME280;3781;42.272;22.658;2022-10-17T02:09:16;95846.84;;;5.13;nan
7480;BME280;3781;42.272;22.658;2022-10-17T02:11:49;95879.34;;;4.79;nan
7480;BME280;3781;42.272;22.658;2022-10-17T02:14:23;95876.19;;;4.53;nan
7480;BME280;3781;42.272;22.658;2022-10-17T02:17:01;95882.13;;;4.55;nan
7480;BME280;3781;42.272;22.658;2022-10-17T02:19:37;95844.41;;;4.16;nan
7480;BME280;3781;42.272;22.658;2022-10-17T02:22:16;95870.41;;;4.10;nan
7480;BME280;3781;42.272;22.658;2022-10-17T02:24:50;95886.88;;;4.44;nan
7480;BME280;3781;42.272;22.658;2022-10-17T02:27:24;95880.09;;;4.62;nan
7480;BME280;3781;42.272;22.658;2022-10-17T02:29:57;95884.16;;;5.05;nan
7480;BME280;3781;42.272;22.658;2022-10-17T02:32:33;95887.03;;;5.53;nan
7480;BME280;3781;42.272;22.658;2022-10-17T02:35:02;95888.28;;;5.63;nan
7480;BME280;3781;42.272;22.658;2022-10-17T02:37:30;95902.78;;;5.47;nan
7480;BME280;3781;42.272;22.658;2022-10-17T02:39:59;95902.38;;;5.38;nan
7480;BME280;3781;42.272;22.658;2022-10-17T02:42:27;95900.47;;;5.24;nan
7480;BME280;3781;42.272;22.658;2022-10-17T02:44:58;95902.94;;;5.07;nan
7480;BME280;3781;42.272;22.658;2022-10-17T02:47:28;95906.56;;;5.03;nan
7480;BME280;3781;42.272;22.658;2022-10-17T02:49:58;95912.44;;;5.06;nan
7480;BME280;3781;42.272;22.658;2022-10-17T02:52:28;95913.81;;;4.95;nan
7480;BME280;3781;42.272;22.658;2022-10-17T02:55:03;95912.28;;;4.91;nan
7480;BME280;3781;42.272;22.658;2022-10-17T02:57:35;95917.44;;;4.91;nan
7480;BME280;3781;42.272;22.658;2022-10-17T03:00:05;95903.56;;;4.75;nan
7480;BME280;3781;42.272;22.658;2022-10-17T03:02:40;95898.34;;;4.76;nan
7480;BME280;3781;42.272;22.658;2022-10-17T03:05:07;95887.25;;;4.55;nan
7480;BME280;3781;42.272;22.658;2022-10-17T03:07:34;95884.56;;;4.58;nan
7480;BME280;3781;42.272;22.658;2022-10-17T03:10:01;95905.09;;;4.79;nan
7480;BME280;3781;42.272;22.658;2022-10-17T03:12:27;95913.91;;;4.34;nan
7480;BME280;3781;42.272;22.658;2022-10-17T03:14:54;95919.16;;;3.91;nan
7480;BME280;3781;42.272;22.658;2022-10-17T03:17:21;95913.06;;;3.52;nan
7480;BME280;3781;42.272;22.658;2022-10-17T03:19:49;95919.75;;;3.56;nan
7480;BME280;3781;42.272;22.658;2022-10-17T03:22:16;95926.34;;;3.40;nan
7480;BME280;3781;42.272;22.658;2022-10-17T03:24:43;95921.81;;;3.46;nan
7480;BME280;3781;42.272;22.658;2022-10-17T03:27:09;95924.16;;;3.52;nan
7480;BME280;3781;42.272;22.658;2022-10-17T03:29:37;95920.19;;;3.65;nan
7480;BME280;3781;42.272;22.658;2022-10-17T03:32:04;95915.16;;;3.84;nan
7480;BME280;3781;42.272;22.658;2022-10-17T03:34:30;95907.34;;;3.87;nan
7480;BME280;3781;42.272;22.658;2022-10-17T03:36:59;95911.31;;;3.94;nan
7480;BME280;3781;42.272;22.658;2022-10-17T03:39:25;95919.78;;;3.96;nan
7480;BME280;3781;42.272;22.658;2022-10-17T03:41:52;95918.78;;;4.20;nan
7480;BME280;3781;42.272;22.658;2022-10-17T03:44:19;95914.59;;;4.58;nan
7480;BME280;3781;42.272;22.658;2022-10-17T03:46:45;95916.13;;;4.62;nan
7480;BME280;3781;42.272;22.658;2022-10-17T03:49:12;95915.91;;;4.87;nan
7480;BME280;3781;42.272;22.658;2022-10-17T03:51:39;95925.88;;;4.74;nan
7480;BME280;3781;42.272;22.658;2022-10-17T03:54:07;95930.44;;;4.68;nan
7480;BME280;3781;42.272;22.658;2022-10-17T03:56:34;95924.69;;;4.63;nan
7480;BME280;3781;42.272;22.658;2022-10-17T03:59:00;95925.00;;;4.55;nan
7480;BME280;3781;42.272;22.658;2022-10-17T04:01:27;95915.59;;;4.15;nan
7480;BME280;3781;42.272;22.658;2022-10-17T04:03:55;95920.94;;;4.11;nan
7480;BME280;3781;42.272;22.658;2022-10-17T04:06:22;95907.56;;;3.81;nan
7480;BME280;3781;42.272;22.658;2022-10-17T04:08:49;95929.75;;;3.62;nan
7480;BME280;3781;42.272;22.658;2022-10-17T04:11:19;95929.50;;;3.25;nan
7480;BME280;3781;42.272;22.658;2022-10-17T04:13:46;95927.72;;;3.27;nan
7480;BME280;3781;42.272;22.658;2022-10-17T04:16:17;95928.31;;;3.33;nan
7480;BME280;3781;42.272;22.658;2022-10-17T04:18:43;95915.56;;;3.32;nan
7480;BME280;3781;42.272;22.658;2022-10-17T04:21:11;95924.09;;;3.32;nan
7480;BME280;3781;42.272;22.658;2022-10-17T04:23:38;95921.28;;;3.17;nan
7480;BME280;3781;42.272;22.658;2022-10-17T04:26:05;95926.84;;;3.49;nan
7480;BME280;3781;42.272;22.658;2022-10-17T04:28:34;95922.06;;;3.40;nan
7480;BME280;3781;42.272;22.658;2022-10-17T04:31:03;95925.59;;;3.38;nan
7480;BME280;3781;42.272;22.658;2022-10-17T04:33:32;95905.16;;;3.13;nan
7480;BME280;3781;42.272;22.658;2022-10-17T04:36:00;95932.84;;;3.27;nan
7480;BME280;3781;42.272;22.658;2022-10-17T04:38:28;95927.03;;;3.45;nan
7480;BME280;3781;42.272;22.658;2022-10-17T04:40:56;95945.53;;;3.53;nan
7480;BME280;3781;42.272;22.658;2022-10-17T04:43:23;95941.72;;;3.63;nan
7480;BME280;3781;42.272;22.658;2022-10-17T04:45:51;95949.38;;;3.64;nan
7480;BME280;3781;42.272;22.658;2022-10-17T04:48:18;95947.31;;;3.72;nan
7480;BME280;3781;42.272;22.658;2022-10-17T04:50:52;95950.81;;;3.71;nan
7480;BME280;3781;42.272;22.658;2022-10-17T04:53:19;95956.28;;;3.84;nan
7480;BME280;3781;42.272;22.658;2022-10-17T04:55:46;95959.94;;;4.00;nan
7480;BME280;3781;42.272;22.658;2022-10-17T04:58:13;95968.22;;;3.85;nan
7480;BME280;3781;42.272;22.658;2022-10-17T05:00:39;95966.63;;;3.83;nan
7480;BME280;3781;42.272;22.658;2022-10-17T05:03:08;95949.44;;;3.63;nan
7480;BME280;3781;42.272;22.658;2022-10-17T05:05:36;95969.06;;;3.64;nan
7480;BME280;3781;42.272;22.658;2022-10-17T05:08:04;95952.72;;;3.45;nan
7480;BME280;3781;42.272;22.658;2022-10-17T05:10:35;95960.09;;;3.52;nan
7480;BME280;3781;42.272;22.658;2022-10-17T05:13:02;95964.28;;;3.55;nan
7480;BME280;3781;42.272;22.658;2022-10-17T05:15:29;95943.03;;;3.30;nan
7480;BME280;3781;42.272;22.658;2022-10-17T05:17:56;95969.41;;;3.55;nan
7480;BME280;3781;42.272;22.658;2022-10-17T05:20:25;95962.91;;;3.68;nan
7480;BME280;3781;42.272;22.658;2022-10-17T05:22:52;95959.84;;;4.02;nan
7480;BME280;3781;42.272;22.658;2022-10-17T05:25:19;95966.13;;;4.36;nan
7480;BME280;3781;42.272;22.658;2022-10-17T05:27:46;95963.72;;;4.72;nan
7480;BME280;3781;42.272;22.658;2022-10-17T05:30:12;95976.84;;;5.05;nan
7480;BME280;3781;42.272;22.658;2022-10-17T05:32:39;95975.06;;;5.25;nan
7480;BME280;3781;42.272;22.658;2022-10-17T05:35:06;95977.72;;;5.43;nan
7480;BME280;3781;42.272;22.658;2022-10-17T05:37:34;95992.44;;;5.76;nan
7480;BME280;3781;42.272;22.658;2022-10-17T05:40:01;95987.91;;;5.81;nan
7480;BME280;3781;42.272;22.658;2022-10-17T05:42:28;95982.06;;;5.96;nan
7480;BME280;3781;42.272;22.658;2022-10-17T05:44:54;95989.50;;;6.02;nan
7480;BME280;3781;42.272;22.658;2022-10-17T05:47:21;95989.91;;;6.29;nan
7480;BME280;3781;42.272;22.658;2022-10-17T05:49:48;95995.88;;;6.65;nan
7480;BME280;3781;42.272;22.658;2022-10-17T05:52:15;96005.19;;;6.68;nan
7480;BME280;3781;42.272;22.658;2022-10-17T05:54:43;96008.06;;;6.79;nan
7480;BME280;3781;42.272;22.658;2022-10-17T05:57:10;96016.03;;;6.74;nan
7480;BME280;3781;42.272;22.658;2022-10-17T05:59:37;96012.91;;;7.50;nan
7480;BME280;3781;42.272;22.658;2022-10-17T06:02:03;96022.66;;;8.84;nan
7480;BME280;3781;42.272;22.658;2022-10-17T06:04:30;96037.47;;;10.09;nan
7480;BME280;3781;42.272;22.658;2022-10-17T06:06:57;96039.47;;;11.86;nan
7480;BME280;3781;42.272;22.658;2022-10-17T06:09:24;96043.53;;;13.32;nan
7480;BME280;3781;42.272;22.658;2022-10-17T06:11:52;96061.47;;;14.90;nan
7480;BME280;3781;42.272;22.658;2022-10-17T06:14:19;96060.81;;;15.92;nan
7480;BME280;3781;42.272;22.658;2022-10-17T06:16:46;96064.59;;;16.08;nan
7480;BME280;3781;42.272;22.658;2022-10-17T06:19:12;96070.06;;;16.35;nan
7480;BME280;3781;42.272;22.658;2022-10-17T06:21:39;96065.97;;;17.86;nan
7480;BME280;3781;42.272;22.658;2022-10-17T06:24:06;96080.69;;;18.97;nan
7480;BME280;3781;42.272;22.658;2022-10-17T06:26:33;96072.03;;;20.01;nan
7480;BME280;3781;42.272;22.658;2022-10-17T06:29:01;96074.63;;;21.10;nan
7480;BME280;3781;42.272;22.658;2022-10-17T06:31:28;96072.84;;;21.91;nan
7480;BME280;3781;42.272;22.658;2022-10-17T06:33:55;96082.66;;;22.45;nan
7480;BME280;3781;42.272;22.658;2022-10-17T06:36:21;96079.94;;;22.70;nan
7480;BME280;3781;42.272;22.658;2022-10-17T06:38:48;96083.84;;;22.82;nan
7480;BME280;3781;42.272;22.658;2022-10-17T06:41:16;96087.97;;;22.37;nan
7480;BME280;3781;42.272;22.658;2022-10-17T06:43:44;96073.25;;;23.58;nan
7480;BME280;3781;42.272;22.658;2022-10-17T06:46:15;96071.31;;;23.74;nan
7480;BME280;3781;42.272;22.658;2022-10-17T06:48:42;96083.75;;;22.98;nan
7480;BME280;3781;42.272;22.658;2022-10-17T06:51:09;96085.53;;;23.96;nan
7480;BME280;3781;42.272;22.658;2022-10-17T06:53:37;96053.19;;;24.59;nan
7480;BME280;3781;42.272;22.658;2022-10-17T06:56:06;96074.75;;;25.00;nan
7480;BME280;3781;42.272;22.658;2022-10-17T06:58:34;96080.03;;;24.35;nan
7480;BME280;3781;42.272;22.658;2022-10-17T07:01:05;96070.78;;;24.31;nan
7480;BME280;3781;42.272;22.658;2022-10-17T07:03:34;96092.06;;;25.10;nan
7480;BME280;3781;42.272;22.658;2022-10-17T07:06:01;96088.97;;;24.05;nan
7480;BME280;3781;42.272;22.658;2022-10-17T07:08:28;96082.19;;;23.42;nan
7480;BME280;3781;42.272;22.658;2022-10-17T07:10:55;96074.97;;;23.73;nan
7480;BME280;3781;42.272;22.658;2022-10-17T07:13:22;96083.31;;;24.37;nan
7480;BME280;3781;42.272;22.658;2022-10-17T07:15:49;96078.69;;;25.18;nan
7480;BME280;3781;42.272;22.658;2022-10-17T07:18:16;96079.09;;;24.86;nan
7480;BME280;3781;42.272;22.658;2022-10-17T07:20:51;96079.50;;;26.31;nan
7480;BME280;3781;42.272;22.658;2022-10-17T07:23:18;96081.69;;;26.89;nan
7480;BME280;3781;42.272;22.658;2022-10-17T07:25:45;96082.88;;;26.80;nan
7480;BME280;3781;42.272;22.658;2022-10-17T07:28:12;96079.31;;;26.33;nan
7480;BME280;3781;42.272;22.658;2022-10-17T07:30:39;96078.47;;;25.77;nan
7480;BME280;3781;42.272;22.658;2022-10-17T07:33:06;96062.44;;;25.98;nan
7480;BME280;3781;42.272;22.658;2022-10-17T07:35:33;96082.94;;;26.94;nan
7480;BME280;3781;42.272;22.658;2022-10-17T07:38:01;96079.94;;;28.03;nan
7480;BME280;3781;42.272;22.658;2022-10-17T07:40:28;96084.72;;;28.91;nan
7480;BME280;3781;42.272;22.658;2022-10-17T07:42:54;96083.75;;;29.61;nan
7480;BME280;3781;42.272;22.658;2022-10-17T07:45:21;96072.06;;;29.87;nan
7480;BME280;3781;42.272;22.658;2022-10-17T07:47:54;96074.31;;;29.27;nan
7480;BME280;3781;42.272;22.658;2022-10-17T07:50:21;96076.63;;;28.33;nan
7480;BME280;3781;42.272;22.658;2022-10-17T07:52:48;96076.88;;;29.71;nan
7480;BME280;3781;42.272;22.658;2022-10-17T07:55:16;96066.78;;;29.42;nan
7480;BME280;3781;42.272;22.658;2022-10-17T07:57:43;96069.03;;;30.26;nan
7480;BME280;3781;42.272;22.658;2022-10-17T08:00:10;96054.59;;;31.06;nan
7480;BME280;3781;42.272;22.658;2022-10-17T08:02:37;96057.56;;;32.40;nan
7480;BME280;3781;42.272;22.658;2022-10-17T08:05:05;96052.06;;;33.49;nan
7480;BME280;3781;42.272;22.658;2022-10-17T08:07:32;96056.44;;;34.11;nan
7480;BME280;3781;42.272;22.658;2022-10-17T08:09:58;96060.13;;;32.23;nan
7480;BME280;3781;42.272;22.658;2022-10-17T08:12:26;96057.44;;;32.23;nan
7480;BME280;3781;42.272;22.658;2022-10-17T08:14:56;96052.28;;;32.80;nan
7480;BME280;3781;42.272;22.658;2022-10-17T08:17:23;96058.13;;;32.88;nan
7480;BME280;3781;42.272;22.658;2022-10-17T08:19:49;96053.81;;;33.55;nan
7480;BME280;3781;42.272;22.658;2022-10-17T08:22:16;96059.31;;;31.70;nan
7480;BME280;3781;42.272;22.658;2022-10-17T08:24:43;96066.25;;;31.48;nan
7480;BME280;3781;42.272;22.658;2022-10-17T08:27:10;96064.38;;;29.97;nan
7480;BME280;3781;42.272;22.658;2022-10-17T08:29:39;96053.59;;;29.03;nan
7480;BME280;3781;42.272;22.658;2022-10-17T08:32:06;96065.88;;;28.73;nan
7480;BME280;3781;42.272;22.658;2022-10-17T08:34:34;96060.25;;;29.38;nan
7480;BME280;3781;42.272;22.658;2022-10-17T08:37:01;96067.81;;;28.97;nan
7480;BME280;3781;42.272;22.658;2022-10-17T08:39:27;96060.22;;;30.01;nan
7480;BME280;3781;42.272;22.658;2022-10-17T08:42:04;96066.25;;;30.82;nan
7480;BME280;3781;42.272;22.658;2022-10-17T08:44:46;96059.91;;;32.48;nan
7480;BME280;3781;42.272;22.658;2022-10-17T08:47:20;96040.84;;;31.73;nan
7480;BME280;3781;42.272;22.658;2022-10-17T08:49:51;96066.56;;;32.68;nan
7480;BME280;3781;42.272;22.658;2022-10-17T08:52:28;96077.94;;;33.22;nan
7480;BME280;3781;42.272;22.658;2022-10-17T08:54:57;96063.63;;;34.23;nan
7480;BME280;3781;42.272;22.658;2022-10-17T08:57:24;96068.81;;;33.79;nan
7480;BME280;3781;42.272;22.658;2022-10-17T08:59:54;96069.69;;;33.68;nan
7480;BME280;3781;42.272;22.658;2022-10-17T09:02:38;96064.84;;;34.32;nan
7480;BME280;3781;42.272;22.658;2022-10-17T09:05:27;96069.16;;;33.55;nan
7480;BME280;3781;42.272;22.658;2022-10-17T09:08:02;96068.72;;;34.19;nan
7480;BME280;3781;42.272;22.658;2022-10-17T09:10:36;96071.94;;;34.38;nan
7480;BME280;3781;42.272;22.658;2022-10-17T09:13:18;96072.97;;;33.70;nan
7480;BME280;3781;42.272;22.658;2022-10-17T09:16:01;96058.47;;;34.04;nan
7480;BME280;3781;42.272;22.658;2022-10-17T09:18:33;96064.97;;;33.47;nan
7480;BME280;3781;42.272;22.658;2022-10-17T09:21:12;96062.59;;;33.22;nan
7480;BME280;3781;42.272;22.658;2022-10-17T09:23:45;96060.78;;;31.06;nan
7480;BME280;3781;42.272;22.658;2022-10-17T09:26:14;96056.38;;;32.01;nan
7480;BME280;3781;42.272;22.658;2022-10-17T09:28:41;96055.88;;;30.49;nan
7480;BME280;3781;42.272;22.658;2022-10-17T09:31:15;96063.91;;;31.81;nan
7480;BME280;3781;42.272;22.658;2022-10-17T09:33:47;96057.06;;;32.08;nan
7480;BME280;3781;42.272;22.658;2022-10-17T09:36:16;96058.00;;;34.07;nan
7480;BME280;3781;42.272;22.658;2022-10-17T09:38:47;96050.94;;;33.73;nan
7480;BME280;3781;42.272;22.658;2022-10-17T09:41:17;96049.69;;;34.64;nan
7480;BME280;3781;42.272;22.658;2022-10-17T09:43:45;96062.59;;;34.45;nan
7480;BME280;3781;42.272;22.658;2022-10-17T09:46:19;96058.13;;;32.88;nan
7480;BME280;3781;42.272;22.658;2022-10-17T09:48:49;96058.66;;;33.13;nan
7480;BME280;3781;42.272;22.658;2022-10-17T09:51:17;96059.63;;;33.64;nan
7480;BME280;3781;42.272;22.658;2022-10-17T09:53:48;96067.97;;;35.17;nan
7480;BME280;3781;42.272;22.658;2022-10-17T09:56:18;96046.53;;;33.84;nan
7480;BME280;3781;42.272;22.658;2022-10-17T09:58:47;96056.59;;;34.55;nan
7480;BME280;3781;42.272;22.658;2022-10-17T10:01:18;96052.38;;;33.64;nan
7480;BME280;3781;42.272;22.658;2022-10-17T10:03:46;96017.41;;;30.91;nan
7480;BME280;3781;42.272;22.658;2022-10-17T10:06:14;96038.50;;;29.22;nan
7480;BME280;3781;42.272;22.658;2022-10-17T10:08:49;96004.22;;;28.35;nan
7480;BME280;3781;42.272;22.658;2022-10-17T10:11:17;96010.69;;;26.41;nan
7480;BME280;3781;42.272;22.658;2022-10-17T10:13:46;96029.97;;;27.38;nan
7480;BME280;3781;42.272;22.658;2022-10-17T10:16:19;96021.13;;;27.96;nan
7480;BME280;3781;42.272;22.658;2022-10-17T10:18:47;96013.38;;;28.72;nan
7480;BME280;3781;42.272;22.658;2022-10-17T10:21:15;96012.41;;;26.21;nan
7480;BME280;3781;42.272;22.658;2022-10-17T10:23:45;96015.56;;;25.48;nan
7480;BME280;3781;42.272;22.658;2022-10-17T10:26:32;96007.06;;;24.16;nan
7480;BME280;3781;42.272;22.658;2022-10-17T10:29:02;96000.44;;;25.49;nan
7480;BME280;3781;42.272;22.658;2022-10-17T10:31:34;96004.19;;;26.98;nan
7480;BME280;3781;42.272;22.658;2022-10-17T10:34:20;96006.75;;;27.64;nan
7480;BME280;3781;42.272;22.658;2022-10-17T10:36:55;96000.19;;;29.21;nan
7480;BME280;3781;42.272;22.658;2022-10-17T10:39:42;96001.00;;;27.54;nan
7480;BME280;3781;42.272;22.658;2022-10-17T10:42:21;96005.44;;;27.15;nan
7480;BME280;3781;42.272;22.658;2022-10-17T10:44:50;96004.22;;;27.24;nan
7480;BME280;3781;42.272;22.658;2022-10-17T10:47:22;95998.88;;;28.35;nan
7480;BME280;3781;42.272;22.658;2022-10-17T10:49:52;95998.81;;;29.74;nan
7480;BME280;3781;42.272;22.658;2022-10-17T10:52:27;95991.16;;;28.07;nan
7480;BME280;3781;42.272;22.658;2022-10-17T10:55:02;95983.16;;;29.09;nan
7480;BME280;3781;42.272;22.658;2022-10-17T10:57:32;95954.00;;;29.01;nan
7480;BME280;3781;42.272;22.658;2022-10-17T11:00:05;95991.59;;;29.75;nan
7480;BME280;3781;42.272;22.658;2022-10-17T11:02:44;95997.22;;;30.52;nan
7480;BME280;3781;42.272;22.658;2022-10-17T11:05:17;95988.28;;;30.59;nan
7480;BME280;3781;42.272;22.658;2022-10-17T11:07:50;95990.72;;;30.78;nan
7480;BME280;3781;42.272;22.658;2022-10-17T11:10:23;95987.97;;;32.09;nan
7480;BME280;3781;42.272;22.658;2022-10-17T11:12:58;95970.44;;;33.65;nan
7480;BME280;3781;42.272;22.658;2022-10-17T11:15:29;95991.53;;;34.18;nan
7480;BME280;3781;42.272;22.658;2022-10-17T11:18:04;95984.94;;;33.03;nan
7480;BME280;3781;42.272;22.658;2022-10-17T11:20:37;95964.72;;;33.78;nan
7480;BME280;3781;42.272;22.658;2022-10-17T11:23:14;95988.06;;;34.39;nan
7480;BME280;3781;42.272;22.658;2022-10-17T11:25:45;95987.72;;;34.96;nan
7480;BME280;3781;42.272;22.658;2022-10-17T11:28:15;95952.06;;;34.72;nan
7480;BME280;3781;42.272;22.658;2022-10-17T11:30:49;95970.56;;;31.99;nan
7480;BME280;3781;42.272;22.658;2022-10-17T11:33:24;95972.34;;;31.41;nan
7480;BME280;3781;42.272;22.658;2022-10-17T11:35:56;95961.34;;;32.19;nan
7480;BME280;3781;42.272;22.658;2022-10-17T11:38:29;95965.22;;;30.15;nan
7480;BME280;3781;42.272;22.658;2022-10-17T11:40:59;95957.41;;;30.86;nan
7480;BME280;3781;42.272;22.658;2022-10-17T11:43:28;95948.69;;;31.20;nan
7480;BME280;3781;42.272;22.658;2022-10-17T11:45:59;95958.25;;;31.16;nan
7480;BME280;3781;42.272;22.658;2022-10-17T11:48:33;95968.53;;;32.64;nan
7480;BME280;3781;42.272;22.658;2022-10-17T11:51:07;95959.38;;;33.33;nan
7480;BME280;3781;42.272;22.658;2022-10-17T11:53:44;95945.97;;;33.22;nan
7480;BME280;3781;42.272;22.658;2022-10-17T11:56:14;95952.44;;;32.18;nan
7480;BME280;3781;42.272;22.658;2022-10-17T11:58:49;95961.22;;;32.25;nan
7480;BME280;3781;42.272;22.658;2022-10-17T12:01:24;95958.63;;;30.90;nan
7480;BME280;3781;42.272;22.658;2022-10-17T12:04:11;95956.31;;;30.75;nan
7480;BME280;3781;42.272;22.658;2022-10-17T12:06:51;95958.72;;;31.66;nan
7480;BME280;3781;42.272;22.658;2022-10-17T12:09:28;95953.31;;;32.58;nan
7480;BME280;3781;42.272;22.658;2022-10-17T12:11:58;95955.00;;;34.49;nan
7480;BME280;3781;42.272;22.658;2022-10-17T12:14:49;95956.81;;;34.43;nan
7480;BME280;3781;42.272;22.658;2022-10-17T12:17:27;95952.41;;;34.54;nan
7480;BME280;3781;42.272;22.658;2022-10-17T12:20:25;95951.41;;;35.35;nan
7480;BME280;3781;42.272;22.658;2022-10-17T12:22:54;95969.63;;;35.44;nan
7480;BME280;3781;42.272;22.658;2022-10-17T12:25:23;95949.16;;;35.48;nan
7480;BME280;3781;42.272;22.658;2022-10-17T12:28:08;95956.16;;;36.13;nan
7480;BME280;3781;42.272;22.658;2022-10-17T12:30:48;95950.16;;;35.42;nan
7480;BME280;3781;42.272;22.658;2022-10-17T12:33:17;95940.56;;;33.83;nan
7480;BME280;3781;42.272;22.658;2022-10-17T12:35:49;95951.13;;;34.83;nan
7480;BME280;3781;42.272;22.658;2022-10-17T12:38:21;95949.38;;;35.47;nan
7480;BME280;3781;42.272;22.658;2022-10-17T12:41:06;95944.47;;;33.76;nan
7480;BME280;3781;42.272;22.658;2022-10-17T12:43:51;95949.22;;;35.58;nan
7480;BME280;3781;42.272;22.658;2022-10-17T12:46:47;95944.16;;;36.92;nan
7480;BME280;3781;42.272;22.658;2022-10-17T12:49:23;95951.72;;;36.95;nan
7480;BME280;3781;42.272;22.658;2022-10-17T12:52:22;95928.34;;;35.22;nan
7480;BME280;3781;42.272;22.658;2022-10-17T12:54:56;95944.88;;;34.56;nan
7480;BME280;3781;42.272;22.658;2022-10-17T12:57:30;95941.56;;;34.97;nan
7480;BME280;3781;42.272;22.658;2022-10-17T13:00:02;95939.78;;;34.59;nan
7480;BME280;3781;42.272;22.658;2022-10-17T13:02:30;95940.75;;;33.60;nan
7480;BME280;3781;42.272;22.658;2022-10-17T13:05:04;95926.97;;;32.72;nan
7480;BME280;3781;42.272;22.658;2022-10-17T13:07:34;95939.88;;;32.87;nan
7480;BME280;3781;42.272;22.658;2022-10-17T13:10:03;95918.19;;;33.66;nan
7480;BME280;3781;42.272;22.658;2022-10-17T13:12:32;95933.69;;;33.59;nan
7480;BME280;3781;42.272;22.658;2022-10-17T13:15:03;95933.00;;;32.39;nan
7480;BME280;3781;42.272;22.658;2022-10-17T13:17:32;95924.28;;;31.74;nan
7480;BME280;3781;42.272;22.658;2022-10-17T13:19:59;95922.22;;;30.46;nan
7480;BME280;3781;42.272;22.658;2022-10-17T13:22:28;95926.59;;;29.61;nan
7480;BME280;3781;42.272;22.658;2022-10-17T13:25:08;95919.53;;;29.11;nan
7480;BME280;3781;42.272;22.658;2022-10-17T13:27:35;95921.78;;;30.49;nan
7480;BME280;3781;42.272;22.658;2022-10-17T13:30:21;95921.97;;;31.37;nan
7480;BME280;3781;42.272;22.658;2022-10-17T13:32:48;95904.88;;;31.95;nan
7480;BME280;3781;42.272;22.658;2022-10-17T13:35:21;95909.63;;;33.08;nan
7480;BME280;3781;42.272;22.658;2022-10-17T13:37:48;95922.00;;;32.81;nan
7480;BME280;3781;42.272;22.658;2022-10-17T13:40:19;95919.91;;;32.43;nan
7480;BME280;3781;42.272;22.658;2022-10-17T13:42:47;95918.91;;;32.60;nan
7480;BME280;3781;42.272;22.658;2022-10-17T13:45:18;95926.06;;;31.39;nan
7480;BME280;3781;42.272;22.658;2022-10-17T13:47:45;95924.69;;;33.37;nan
7480;BME280;3781;42.272;22.658;2022-10-17T13:50:30;95928.91;;;34.76;nan
7480;BME280;3781;42.272;22.658;2022-10-17T13:53:16;95935.91;;;34.34;nan
7480;BME280;3781;42.272;22.658;2022-10-17T13:55:54;95927.00;;;32.89;nan